sensor_id;sensor_type;location;lat;lon;timestamp;temperature;humidity
18365;DHT22;9309;52.126;11.616;2023-07-13T00:01:52;18.40;63.20
18365;DHT22;9309;52.126;11.616;2023-07-13T00:04:21;18.40;63.70
18365;DHT22;9309;52.126;11.616;2023-07-13T00:06:49;18.50;63.30
18365;DHT22;9309;52.126;11.616;2023-07-13T00:09:17;18.30;63.90
18365;DHT22;9309;52.126;11.616;2023-07-13T00:11:44;18.30;64.20
18365;DHT22;9309;52.126;11.616;2023-07-13T00:14:14;18.00;65.50
18365;DHT22;9309;52.126;11.616;2023-07-13T00:16:42;18.00;65.40
18365;DHT22;9309;52.126;11.616;2023-07-13T00:19:09;18.00;65.10
18365;DHT22;9309;52.126;11.616;2023-07-13T00:21:36;17.90;65.20
18365;DHT22;9309;52.126;11.616;2023-07-13T00:24:03;17.80;65.90
18365;DHT22;9309;52.126;11.616;2023-07-13T00:26:30;17.70;66.30
18365;DHT22;9309;52.126;11.616;2023-07-13T00:28:58;17.50;67.00
18365;DHT22;9309;52.126;11.616;2023-07-13T00:31:26;17.40;67.30
18365;DHT22;9309;52.126;11.616;2023-07-13T00:33:52;17.80;66.10
18365;DHT22;9309;52.126;11.616;2023-07-13T00:36:20;18.00;65.50
18365;DHT22;9309;52.126;11.616;2023-07-13T00:38:47;18.00;65.50
18365;DHT22;9309;52.126;11.616;2023-07-13T00:41:14;18.00;65.30
18365;DHT22;9309;52.126;11.616;2023-07-13T00:43:41;18.10;65.10
18365;DHT22;9309;52.126;11.616;2023-07-13T00:48:53;18.00;65.10
18365;DHT22;9309;52.126;11.616;2023-07-13T00:51:25;17.80;65.80
18365;DHT22;9309;52.126;11.616;2023-07-13T00:53:54;17.90;65.80
18365;DHT22;9309;52.126;11.616;2023-07-13T00:56:23;17.90;65.50
18365;DHT22;9309;52.126;11.616;2023-07-13T00:58:50;17.90;65.60
18365;DHT22;9309;52.126;11.616;2023-07-13T01:01:18;17.80;65.90
18365;DHT22;9309;52.126;11.616;2023-07-13T01:03:44;17.80;65.50
18365;DHT22;9309;52.126;11.616;2023-07-13T01:06:14;17.70;66.10
18365;DHT22;9309;52.126;11.616;2023-07-13T01:08:43;17.40;67.80
18365;DHT22;9309;52.126;11.616;2023-07-13T01:11:09;17.30;68.30
18365;DHT22;9309;52.126;11.616;2023-07-13T01:13:36;17.20;68.70
18365;DHT22;9309;52.126;11.616;2023-07-13T01:16:11;17.40;68.00
18365;DHT22;9309;52.126;11.616;2023-07-13T01:18:39;17.70;67.10
18365;DHT22;9309;52.126;11.616;2023-07-13T01:21:07;17.60;67.10
18365;DHT22;9309;52.126;11.616;2023-07-13T01:23:34;17.60;66.80
18365;DHT22;9309;52.126;11.616;2023-07-13T01:26:01;17.60;66.80
18365;DHT22;9309;52.126;11.616;2023-07-13T01:28:28;17.40;67.30
18365;DHT22;9309;52.126;11.616;2023-07-13T01:30:57;17.40;67.50
18365;DHT22;9309;52.126;11.616;2023-07-13T01:33:25;17.50;67.50
18365;DHT22;9309;52.126;11.616;2023-07-13T01:35:52;17.50;67.30
18365;DHT22;9309;52.126;11.616;2023-07-13T01:38:22;17.40;67.70
18365;DHT22;9309;52.126;11.616;2023-07-13T01:40:49;17.40;67.60
18365;DHT22;9309;52.126;11.616;2023-07-13T01:43:19;17.40;67.90
18365;DHT22;9309;52.126;11.616;2023-07-13T01:45:46;17.30;68.40
18365;DHT22;9309;52.126;11.616;2023-07-13T01:48:14;17.30;68.60
18365;DHT22;9309;52.126;11.616;2023-07-13T01:50:41;17.30;68.70
18365;DHT22;9309;52.126;11.616;2023-07-13T01:53:08;17.30;68.70
18365;DHT22;9309;52.126;11.616;2023-07-13T01:55:36;17.30;68.80
18365;DHT22;9309;52.126;11.616;2023-07-13T01:58:04;17.20;68.60
18365;DHT22;9309;52.126;11.616;2023-07-13T02:00:32;17.20;69.20
18365;DHT22;9309;52.126;11.616;2023-07-13T02:03:01;17.20;69.20
18365;DHT22;9309;52.126;11.616;2023-07-13T02:05:28;17.20;69.20
18365;DHT22;9309;52.126;11.616;2023-07-13T02:07:55;17.20;69.20
18365;DHT22;9309;52.126;11.616;2023-07-13T02:10:21;17.10;69.40
18365;DHT22;9309;52.126;11.616;2023-07-13T02:12:50;17.00;69.50
18365;DHT22;9309;52.126;11.616;2023-07-13T02:15:17;16.90;69.90
18365;DHT22;9309;52.126;11.616;2023-07-13T02:17:44;16.90;69.90
18365;DHT22;9309;52.126;11.616;2023-07-13T02:20:11;16.80;69.90
18365;DHT22;9309;52.126;11.616;2023-07-13T02:22:38;16.70;70.50
18365;DHT22;9309;52.126;11.616;2023-07-13T02:25:05;16.60;71.00
18365;DHT22;9309;52.126;11.616;2023-07-13T02:27:32;16.50;71.20
18365;DHT22;9309;52.126;11.616;2023-07-13T02:30:00;16.50;71.40
18365;DHT22;9309;52.126;11.616;2023-07-13T02:32:27;16.60;71.20
18365;DHT22;9309;52.126;11.616;2023-07-13T02:34:54;16.70;71.20
18365;DHT22;9309;52.126;11.616;2023-07-13T02:37:21;16.60;71.20
18365;DHT22;9309;52.126;11.616;2023-07-13T02:39:48;16.60;71.40
18365;DHT22;9309;52.126;11.616;2023-07-13T02:42:15;16.60;71.30
18365;DHT22;9309;52.126;11.616;2023-07-13T02:44:44;16.50;71.80
18365;DHT22;9309;52.126;11.616;2023-07-13T02:47:12;16.70;71.30
18365;DHT22;9309;52.126;11.616;2023-07-13T02:49:39;16.60;71.10
18365;DHT22;9309;52.126;11.616;2023-07-13T02:52:06;16.60;71.30
18365;DHT22;9309;52.126;11.616;2023-07-13T02:54:33;16.60;71.20
18365;DHT22;9309;52.126;11.616;2023-07-13T02:57:16;16.60;71.30
18365;DHT22;9309;52.126;11.616;2023-07-13T03:00:24;16.70;71.20
18365;DHT22;9309;52.126;11.616;2023-07-13T03:02:52;16.70;70.80
18365;DHT22;9309;52.126;11.616;2023-07-13T03:05:22;16.80;70.50
18365;DHT22;9309;52.126;11.616;2023-07-13T03:07:49;16.80;70.30
18365;DHT22;9309;52.126;11.616;2023-07-13T03:10:17;16.80;70.20
18365;DHT22;9309;52.126;11.616;2023-07-13T03:12:48;16.80;70.20
18365;DHT22;9309;52.126;11.616;2023-07-13T03:15:21;16.80;70.10
18365;DHT22;9309;52.126;11.616;2023-07-13T03:17:52;16.70;70.80
18365;DHT22;9309;52.126;11.616;2023-07-13T03:20:18;16.60;71.20
18365;DHT22;9309;52.126;11.616;2023-07-13T03:22:45;16.70;70.80
18365;DHT22;9309;52.126;11.616;2023-07-13T03:25:13;16.80;70.30
18365;DHT22;9309;52.126;11.616;2023-07-13T03:27:39;17.00;69.60
18365;DHT22;9309;52.126;11.616;2023-07-13T03:30:09;16.90;69.50
18365;DHT22;9309;52.126;11.616;2023-07-13T03:32:36;17.00;69.20
18365;DHT22;9309;52.126;11.616;2023-07-13T03:35:05;16.90;69.10
18365;DHT22;9309;52.126;11.616;2023-07-13T03:37:32;16.80;69.50
18365;DHT22;9309;52.126;11.616;2023-07-13T03:39:59;16.70;70.20
18365;DHT22;9309;52.126;11.616;2023-07-13T03:42:26;16.70;70.10
18365;DHT22;9309;52.126;11.616;2023-07-13T03:44:54;16.70;70.30
18365;DHT22;9309;52.126;11.616;2023-07-13T03:47:22;16.80;70.40
18365;DHT22;9309;52.126;11.616;2023-07-13T03:49:48;16.70;71.00
18365;DHT22;9309;52.126;11.616;2023-07-13T03:52:16;16.60;71.40
18365;DHT22;9309;52.126;11.616;2023-07-13T03:54:43;16.70;71.40
18365;DHT22;9309;52.126;11.616;2023-07-13T03:57:10;16.70;71.10
18365;DHT22;9309;52.126;11.616;2023-07-13T03:59:37;16.70;71.10
18365;DHT22;9309;52.126;11.616;2023-07-13T04:02:04;16.50;72.10
18365;DHT22;9309;52.126;11.616;2023-07-13T04:04:33;16.40;72.70
18365;DHT22;9309;52.126;11.616;2023-07-13T04:06:59;16.30;73.20
18365;DHT22;9309;52.126;11.616;2023-07-13T04:09:27;16.40;72.40
18365;DHT22;9309;52.126;11.616;2023-07-13T04:11:54;16.70;71.60
18365;DHT22;9309;52.126;11.616;2023-07-13T04:14:21;17.00;69.90
18365;DHT22;9309;52.126;11.616;2023-07-13T04:16:47;17.20;69.00
18365;DHT22;9309;52.126;11.616;2023-07-13T04:19:14;17.40;68.80
18365;DHT22;9309;52.126;11.616;2023-07-13T04:21:40;17.40;69.00
18365;DHT22;9309;52.126;11.616;2023-07-13T04:24:07;17.40;69.00
18365;DHT22;9309;52.126;11.616;2023-07-13T04:26:35;17.60;69.00
18365;DHT22;9309;52.126;11.616;2023-07-13T04:29:04;17.50;69.30
18365;DHT22;9309;52.126;11.616;2023-07-13T04:31:31;17.50;69.60
18365;DHT22;9309;52.126;11.616;2023-07-13T04:33:58;17.80;68.70
18365;DHT22;9309;52.126;11.616;2023-07-13T04:36:25;18.10;67.40
18365;DHT22;9309;52.126;11.616;2023-07-13T04:38:52;18.10;67.10
18365;DHT22;9309;52.126;11.616;2023-07-13T04:41:20;18.20;67.00
18365;DHT22;9309;52.126;11.616;2023-07-13T04:43:49;18.20;67.40
18365;DHT22;9309;52.126;11.616;2023-07-13T04:46:17;18.20;67.80
18365;DHT22;9309;52.126;11.616;2023-07-13T04:48:44;18.10;68.00
18365;DHT22;9309;52.126;11.616;2023-07-13T04:51:12;18.10;68.40
18365;DHT22;9309;52.126;11.616;2023-07-13T04:53:39;18.30;67.70
18365;DHT22;9309;52.126;11.616;2023-07-13T04:56:05;18.50;67.10
18365;DHT22;9309;52.126;11.616;2023-07-13T04:58:33;18.60;66.50
18365;DHT22;9309;52.126;11.616;2023-07-13T05:01:02;18.70;65.00
18365;DHT22;9309;52.126;11.616;2023-07-13T05:03:29;18.70;63.80
18365;DHT22;9309;52.126;11.616;2023-07-13T05:05:56;18.60;66.10
18365;DHT22;9309;52.126;11.616;2023-07-13T05:08:23;18.40;65.20
18365;DHT22;9309;52.126;11.616;2023-07-13T05:10:51;18.60;64.20
18365;DHT22;9309;52.126;11.616;2023-07-13T05:13:18;18.50;64.40
18365;DHT22;9309;52.126;11.616;2023-07-13T05:15:44;18.60;64.20
18365;DHT22;9309;52.126;11.616;2023-07-13T05:18:12;18.70;63.80
18365;DHT22;9309;52.126;11.616;2023-07-13T05:20:39;18.80;63.00
18365;DHT22;9309;52.126;11.616;2023-07-13T05:23:06;18.70;63.60
18365;DHT22;9309;52.126;11.616;2023-07-13T05:25:33;18.70;63.20
18365;DHT22;9309;52.126;11.616;2023-07-13T05:27:59;18.70;63.20
18365;DHT22;9309;52.126;11.616;2023-07-13T05:30:26;18.80;63.00
18365;DHT22;9309;52.126;11.616;2023-07-13T05:32:52;18.80;63.70
18365;DHT22;9309;52.126;11.616;2023-07-13T05:35:20;18.90;63.30
18365;DHT22;9309;52.126;11.616;2023-07-13T05:37:47;18.70;63.80
18365;DHT22;9309;52.126;11.616;2023-07-13T05:40:14;18.60;64.10
18365;DHT22;9309;52.126;11.616;2023-07-13T05:42:40;18.50;64.60
18365;DHT22;9309;52.126;11.616;2023-07-13T05:45:08;18.60;64.70
18365;DHT22;9309;52.126;11.616;2023-07-13T05:47:34;18.90;63.90
18365;DHT22;9309;52.126;11.616;2023-07-13T05:50:01;19.00;63.60
18365;DHT22;9309;52.126;11.616;2023-07-13T05:52:29;19.20;63.30
18365;DHT22;9309;52.126;11.616;2023-07-13T05:54:56;19.40;63.20
18365;DHT22;9309;52.126;11.616;2023-07-13T05:57:23;19.60;61.80
18365;DHT22;9309;52.126;11.616;2023-07-13T05:59:49;19.60;61.50
18365;DHT22;9309;52.126;11.616;2023-07-13T06:02:16;19.60;60.70
18365;DHT22;9309;52.126;11.616;2023-07-13T06:04:43;19.60;60.40
18365;DHT22;9309;52.126;11.616;2023-07-13T06:07:09;19.60;60.10
18365;DHT22;9309;52.126;11.616;2023-07-13T06:09:37;19.70;59.80
18365;DHT22;9309;52.126;11.616;2023-07-13T06:12:05;19.80;59.60
18365;DHT22;9309;52.126;11.616;2023-07-13T06:14:32;19.80;58.40
18365;DHT22;9309;52.126;11.616;2023-07-13T06:16:58;19.80;58.80
18365;DHT22;9309;52.126;11.616;2023-07-13T06:19:25;19.70;59.30
18365;DHT22;9309;52.126;11.616;2023-07-13T06:21:52;19.70;58.90
18365;DHT22;9309;52.126;11.616;2023-07-13T06:24:18;19.50;59.50
18365;DHT22;9309;52.126;11.616;2023-07-13T06:26:46;19.70;58.60
18365;DHT22;9309;52.126;11.616;2023-07-13T06:29:13;19.60;58.70
18365;DHT22;9309;52.126;11.616;2023-07-13T06:31:39;19.90;58.30
18365;DHT22;9309;52.126;11.616;2023-07-13T06:34:06;20.00;57.30
18365;DHT22;9309;52.126;11.616;2023-07-13T06:36:33;19.90;57.60
18365;DHT22;9309;52.126;11.616;2023-07-13T06:39:01;19.80;58.00
18365;DHT22;9309;52.126;11.616;2023-07-13T06:41:28;19.70;58.70
18365;DHT22;9309;52.126;11.616;2023-07-13T06:43:58;19.70;58.80
18365;DHT22;9309;52.126;11.616;2023-07-13T06:46:26;19.60;59.40
18365;DHT22;9309;52.126;11.616;2023-07-13T06:48:55;19.50;59.80
18365;DHT22;9309;52.126;11.616;2023-07-13T06:51:21;19.40;60.20
18365;DHT22;9309;52.126;11.616;2023-07-13T06:53:48;19.60;60.40
18365;DHT22;9309;52.126;11.616;2023-07-13T06:56:15;19.60;60.20
18365;DHT22;9309;52.126;11.616;2023-07-13T06:58:42;19.70;59.90
18365;DHT22;9309;52.126;11.616;2023-07-13T07:01:10;19.80;59.70
18365;DHT22;9309;52.126;11.616;2023-07-13T07:03:36;19.90;58.40
18365;DHT22;9309;52.126;11.616;2023-07-13T07:06:12;19.80;59.30
18365;DHT22;9309;52.126;11.616;2023-07-13T07:08:39;19.90;58.80
18365;DHT22;9309;52.126;11.616;2023-07-13T07:11:07;20.20;58.30
18365;DHT22;9309;52.126;11.616;2023-07-13T07:13:34;20.10;56.80
18365;DHT22;9309;52.126;11.616;2023-07-13T07:16:07;20.20;56.30
18365;DHT22;9309;52.126;11.616;2023-07-13T07:18:35;20.40;56.20
18365;DHT22;9309;52.126;11.616;2023-07-13T07:21:02;20.30;56.50
18365;DHT22;9309;52.126;11.616;2023-07-13T07:23:29;20.30;56.80
18365;DHT22;9309;52.126;11.616;2023-07-13T07:25:56;20.50;55.90
18365;DHT22;9309;52.126;11.616;2023-07-13T07:28:22;20.60;55.70
18365;DHT22;9309;52.126;11.616;2023-07-13T07:30:53;20.50;56.00
18365;DHT22;9309;52.126;11.616;2023-07-13T07:33:19;20.70;55.80
18365;DHT22;9309;52.126;11.616;2023-07-13T07:35:47;20.70;55.30
18365;DHT22;9309;52.126;11.616;2023-07-13T07:38:14;20.80;54.90
18365;DHT22;9309;52.126;11.616;2023-07-13T07:40:42;21.00;53.90
18365;DHT22;9309;52.126;11.616;2023-07-13T07:43:10;21.00;53.20
18365;DHT22;9309;52.126;11.616;2023-07-13T07:45:37;21.00;52.60
18365;DHT22;9309;52.126;11.616;2023-07-13T07:48:05;21.10;52.60
18365;DHT22;9309;52.126;11.616;2023-07-13T07:50:32;21.00;53.10
18365;DHT22;9309;52.126;11.616;2023-07-13T07:53:00;21.00;53.80
18365;DHT22;9309;52.126;11.616;2023-07-13T07:55:28;20.90;53.00
18365;DHT22;9309;52.126;11.616;2023-07-13T07:57:56;21.00;54.00
18365;DHT22;9309;52.126;11.616;2023-07-13T08:00:23;21.00;53.70
18365;DHT22;9309;52.126;11.616;2023-07-13T08:02:53;21.10;53.60
18365;DHT22;9309;52.126;11.616;2023-07-13T08:05:20;21.40;52.80
18365;DHT22;9309;52.126;11.616;2023-07-13T08:07:50;21.60;52.50
18365;DHT22;9309;52.126;11.616;2023-07-13T08:10:18;21.90;51.20
18365;DHT22;9309;52.126;11.616;2023-07-13T08:12:44;21.80;50.20
18365;DHT22;9309;52.126;11.616;2023-07-13T08:15:14;21.80;50.40
18365;DHT22;9309;52.126;11.616;2023-07-13T08:17:42;22.00;50.30
18365;DHT22;9309;52.126;11.616;2023-07-13T08:20:09;22.10;49.90
18365;DHT22;9309;52.126;11.616;2023-07-13T08:22:36;21.90;49.90
18365;DHT22;9309;52.126;11.616;2023-07-13T08:25:03;21.90;49.80
18365;DHT22;9309;52.126;11.616;2023-07-13T08:27:32;21.90;49.90
18365;DHT22;9309;52.126;11.616;2023-07-13T08:29:59;22.00;49.50
18365;DHT22;9309;52.126;11.616;2023-07-13T08:32:26;21.80;50.10
18365;DHT22;9309;52.126;11.616;2023-07-13T08:34:52;21.90;48.90
18365;DHT22;9309;52.126;11.616;2023-07-13T08:37:19;21.90;48.30
18365;DHT22;9309;52.126;11.616;2023-07-13T08:39:46;22.10;47.10
18365;DHT22;9309;52.126;11.616;2023-07-13T08:42:21;22.30;46.40
18365;DHT22;9309;52.126;11.616;2023-07-13T08:44:56;22.40;45.40
18365;DHT22;9309;52.126;11.616;2023-07-13T08:47:24;22.60;45.00
18365;DHT22;9309;52.126;11.616;2023-07-13T08:49:52;22.70;45.40
18365;DHT22;9309;52.126;11.616;2023-07-13T08:52:30;22.90;44.10
18365;DHT22;9309;52.126;11.616;2023-07-13T08:54:58;22.90;44.00
18365;DHT22;9309;52.126;11.616;2023-07-13T08:57:31;22.90;43.90
18365;DHT22;9309;52.126;11.616;2023-07-13T09:00:00;22.90;43.70
18365;DHT22;9309;52.126;11.616;2023-07-13T09:02:38;22.80;44.50
18365;DHT22;9309;52.126;11.616;2023-07-13T09:05:10;22.80;45.30
18365;DHT22;9309;52.126;11.616;2023-07-13T09:07:48;22.70;45.10
18365;DHT22;9309;52.126;11.616;2023-07-13T09:10:23;22.50;45.70
18365;DHT22;9309;52.126;11.616;2023-07-13T09:13:01;22.30;45.40
18365;DHT22;9309;52.126;11.616;2023-07-13T09:15:37;22.40;45.90
18365;DHT22;9309;52.126;11.616;2023-07-13T09:18:09;22.50;45.70
18365;DHT22;9309;52.126;11.616;2023-07-13T09:20:42;22.80;44.60
18365;DHT22;9309;52.126;11.616;2023-07-13T09:23:15;22.90;44.00
18365;DHT22;9309;52.126;11.616;2023-07-13T09:25:45;23.20;44.90
18365;DHT22;9309;52.126;11.616;2023-07-13T09:28:16;23.60;43.30
18365;DHT22;9309;52.126;11.616;2023-07-13T09:30:50;23.80;42.10
18365;DHT22;9309;52.126;11.616;2023-07-13T09:33:18;23.70;42.60
18365;DHT22;9309;52.126;11.616;2023-07-13T09:35:45;23.60;42.20
18365;DHT22;9309;52.126;11.616;2023-07-13T09:38:14;23.50;42.50
18365;DHT22;9309;52.126;11.616;2023-07-13T09:40:56;23.40;41.60
18365;DHT22;9309;52.126;11.616;2023-07-13T09:43:25;23.20;42.60
18365;DHT22;9309;52.126;11.616;2023-07-13T09:45:55;22.90;43.50
18365;DHT22;9309;52.126;11.616;2023-07-13T09:48:23;22.70;44.30
18365;DHT22;9309;52.126;11.616;2023-07-13T09:50:54;22.70;44.90
18365;DHT22;9309;52.126;11.616;2023-07-13T09:53:22;22.50;45.50
18365;DHT22;9309;52.126;11.616;2023-07-13T09:55:49;23.00;44.70
18365;DHT22;9309;52.126;11.616;2023-07-13T09:58:19;23.40;43.70
18365;DHT22;9309;52.126;11.616;2023-07-13T10:00:57;23.70;42.40
18365;DHT22;9309;52.126;11.616;2023-07-13T10:03:26;23.60;41.90
18365;DHT22;9309;52.126;11.616;2023-07-13T10:05:54;23.80;41.40
18365;DHT22;9309;52.126;11.616;2023-07-13T10:08:24;24.20;40.90
18365;DHT22;9309;52.126;11.616;2023-07-13T10:10:58;24.20;40.40
18365;DHT22;9309;52.126;11.616;2023-07-13T10:13:34;24.00;40.90
18365;DHT22;9309;52.126;11.616;2023-07-13T10:16:04;23.70;42.00
18365;DHT22;9309;52.126;11.616;2023-07-13T10:18:39;23.40;41.90
18365;DHT22;9309;52.126;11.616;2023-07-13T10:21:12;23.20;42.80
18365;DHT22;9309;52.126;11.616;2023-07-13T10:23:39;23.20;42.70
18365;DHT22;9309;52.126;11.616;2023-07-13T10:26:12;23.70;42.00
18365;DHT22;9309;52.126;11.616;2023-07-13T10:28:40;24.20;41.20
18365;DHT22;9309;52.126;11.616;2023-07-13T10:31:13;24.00;41.80
18365;DHT22;9309;52.126;11.616;2023-07-13T10:33:41;23.70;41.80
18365;DHT22;9309;52.126;11.616;2023-07-13T10:36:14;24.30;41.40
18365;DHT22;9309;52.126;11.616;2023-07-13T10:38:43;25.00;40.60
18365;DHT22;9309;52.126;11.616;2023-07-13T10:41:15;26.90;37.40
18365;DHT22;9309;52.126;11.616;2023-07-13T10:43:45;28.50;34.70
18365;DHT22;9309;52.126;11.616;2023-07-13T10:46:16;27.20;35.50
18365;DHT22;9309;52.126;11.616;2023-07-13T10:48:48;26.70;37.00
18365;DHT22;9309;52.126;11.616;2023-07-13T10:51:18;26.60;37.70
18365;DHT22;9309;52.126;11.616;2023-07-13T10:53:47;28.50;34.30
18365;DHT22;9309;52.126;11.616;2023-07-13T10:56:22;28.50;34.50
18365;DHT22;9309;52.126;11.616;2023-07-13T10:59:02;28.00;35.70
18365;DHT22;9309;52.126;11.616;2023-07-13T11:01:49;28.00;35.40
18365;DHT22;9309;52.126;11.616;2023-07-13T11:04:18;27.90;35.40
18365;DHT22;9309;52.126;11.616;2023-07-13T11:06:49;27.70;35.00
18365;DHT22;9309;52.126;11.616;2023-07-13T11:09:36;28.30;34.00
18365;DHT22;9309;52.126;11.616;2023-07-13T11:12:10;29.80;32.20
18365;DHT22;9309;52.126;11.616;2023-07-13T11:15:05;31.00;30.30
18365;DHT22;9309;52.126;11.616;2023-07-13T11:17:36;31.60;28.90
18365;DHT22;9309;52.126;11.616;2023-07-13T11:20:10;31.50;28.90
18365;DHT22;9309;52.126;11.616;2023-07-13T11:22:45;31.10;29.30
18365;DHT22;9309;52.126;11.616;2023-07-13T11:25:26;30.90;29.40
18365;DHT22;9309;52.126;11.616;2023-07-13T11:28:04;31.70;28.50
18365;DHT22;9309;52.126;11.616;2023-07-13T11:30:34;31.10;28.90
18365;DHT22;9309;52.126;11.616;2023-07-13T11:33:04;30.20;30.70
18365;DHT22;9309;52.126;11.616;2023-07-13T11:35:32;29.00;31.90
18365;DHT22;9309;52.126;11.616;2023-07-13T11:38:00;27.40;34.30
18365;DHT22;9309;52.126;11.616;2023-07-13T11:40:27;27.00;35.00
18365;DHT22;9309;52.126;11.616;2023-07-13T11:42:58;27.30;34.60
18365;DHT22;9309;52.126;11.616;2023-07-13T11:45:25;26.80;35.70
18365;DHT22;9309;52.126;11.616;2023-07-13T11:47:53;26.40;36.20
18365;DHT22;9309;52.126;11.616;2023-07-13T11:50:24;27.70;34.60
18365;DHT22;9309;52.126;11.616;2023-07-13T11:52:51;29.10;32.80
18365;DHT22;9309;52.126;11.616;2023-07-13T11:55:20;30.30;30.60
18365;DHT22;9309;52.126;11.616;2023-07-13T11:57:49;28.80;32.50
18365;DHT22;9309;52.126;11.616;2023-07-13T12:00:16;27.00;35.00
18365;DHT22;9309;52.126;11.616;2023-07-13T12:02:45;27.40;35.20
18365;DHT22;9309;52.126;11.616;2023-07-13T12:05:12;28.60;34.10
18365;DHT22;9309;52.126;11.616;2023-07-13T12:07:41;29.90;32.80
18365;DHT22;9309;52.126;11.616;2023-07-13T12:10:15;31.20;30.00
18365;DHT22;9309;52.126;11.616;2023-07-13T12:12:46;32.30;29.20
18365;DHT22;9309;52.126;11.616;2023-07-13T12:15:13;32.50;28.50
18365;DHT22;9309;52.126;11.616;2023-07-13T12:17:40;34.10;27.00
18365;DHT22;9309;52.126;11.616;2023-07-13T12:20:13;33.70;26.20
18365;DHT22;9309;52.126;11.616;2023-07-13T12:22:46;33.50;26.50
18365;DHT22;9309;52.126;11.616;2023-07-13T12:25:13;33.40;27.20
18365;DHT22;9309;52.126;11.616;2023-07-13T12:27:41;32.90;26.80
18365;DHT22;9309;52.126;11.616;2023-07-13T12:30:21;32.60;27.40
18365;DHT22;9309;52.126;11.616;2023-07-13T12:32:55;33.50;26.60
18365;DHT22;9309;52.126;11.616;2023-07-13T12:35:22;33.00;26.60
18365;DHT22;9309;52.126;11.616;2023-07-13T12:37:50;34.00;25.80
18365;DHT22;9309;52.126;11.616;2023-07-13T12:40:18;34.90;25.20
18365;DHT22;9309;52.126;11.616;2023-07-13T12:42:45;34.10;26.20
18365;DHT22;9309;52.126;11.616;2023-07-13T12:45:16;33.60;26.40
18365;DHT22;9309;52.126;11.616;2023-07-13T12:47:46;31.30;29.70
18365;DHT22;9309;52.126;11.616;2023-07-13T12:50:14;31.50;29.50
18365;DHT22;9309;52.126;11.616;2023-07-13T12:52:42;33.50;27.30
18365;DHT22;9309;52.126;11.616;2023-07-13T12:55:12;34.00;26.70
18365;DHT22;9309;52.126;11.616;2023-07-13T12:57:41;34.30;26.60
18365;DHT22;9309;52.126;11.616;2023-07-13T13:00:19;34.90;25.00
18365;DHT22;9309;52.126;11.616;2023-07-13T13:02:48;34.20;25.60
18365;DHT22;9309;52.126;11.616;2023-07-13T13:05:16;31.10;29.50
18365;DHT22;9309;52.126;11.616;2023-07-13T13:07:43;29.80;30.90
18365;DHT22;9309;52.126;11.616;2023-07-13T13:10:14;30.10;30.30
18365;DHT22;9309;52.126;11.616;2023-07-13T13:12:41;30.10;29.30
18365;DHT22;9309;52.126;11.616;2023-07-13T13:15:08;31.00;28.70
18365;DHT22;9309;52.126;11.616;2023-07-13T13:17:35;31.80;27.80
18365;DHT22;9309;52.126;11.616;2023-07-13T13:20:01;33.10;26.20
18365;DHT22;9309;52.126;11.616;2023-07-13T13:22:28;32.90;26.50
18365;DHT22;9309;52.126;11.616;2023-07-13T13:24:56;33.80;25.80
18365;DHT22;9309;52.126;11.616;2023-07-13T13:27:24;33.20;26.00
18365;DHT22;9309;52.126;11.616;2023-07-13T13:29:51;33.30;25.90
18365;DHT22;9309;52.126;11.616;2023-07-13T13:32:18;34.00;25.50
18365;DHT22;9309;52.126;11.616;2023-07-13T13:34:45;34.40;24.70
18365;DHT22;9309;52.126;11.616;2023-07-13T13:37:19;34.80;24.20
18365;DHT22;9309;52.126;11.616;2023-07-13T13:39:46;35.40;23.70
18365;DHT22;9309;52.126;11.616;2023-07-13T13:42:13;35.80;23.60
18365;DHT22;9309;52.126;11.616;2023-07-13T13:44:41;34.40;24.50
18365;DHT22;9309;52.126;11.616;2023-07-13T13:47:13;32.00;26.60
18365;DHT22;9309;52.126;11.616;2023-07-13T13:49:45;31.40;27.50
18365;DHT22;9309;52.126;11.616;2023-07-13T13:52:12;30.00;28.70
18365;DHT22;9309;52.126;11.616;2023-07-13T13:54:39;28.50;30.50
18365;DHT22;9309;52.126;11.616;2023-07-13T13:57:06;28.30;30.80
18365;DHT22;9309;52.126;11.616;2023-07-13T13:59:32;30.30;28.60
18365;DHT22;9309;52.126;11.616;2023-07-13T14:02:09;31.50;27.10
18365;DHT22;9309;52.126;11.616;2023-07-13T14:04:41;31.80;27.30
18365;DHT22;9309;52.126;11.616;2023-07-13T14:07:08;33.00;25.80
18365;DHT22;9309;52.126;11.616;2023-07-13T14:09:35;31.80;26.90
18365;DHT22;9309;52.126;11.616;2023-07-13T14:12:02;31.00;27.50
18365;DHT22;9309;52.126;11.616;2023-07-13T14:14:28;30.70;27.90
18365;DHT22;9309;52.126;11.616;2023-07-13T14:16:55;32.30;26.50
18365;DHT22;9309;52.126;11.616;2023-07-13T14:19:24;31.50;27.10
18365;DHT22;9309;52.126;11.616;2023-07-13T14:21:52;31.10;27.70
18365;DHT22;9309;52.126;11.616;2023-07-13T14:24:19;31.80;27.20
18365;DHT22;9309;52.126;11.616;2023-07-13T14:26:46;31.00;27.70
18365;DHT22;9309;52.126;11.616;2023-07-13T14:29:14;30.90;28.60
18365;DHT22;9309;52.126;11.616;2023-07-13T14:31:42;30.60;28.90
18365;DHT22;9309;52.126;11.616;2023-07-13T14:34:09;29.80;29.90
18365;DHT22;9309;52.126;11.616;2023-07-13T14:36:39;28.90;30.80
18365;DHT22;9309;52.126;11.616;2023-07-13T14:39:10;28.60;31.50
18365;DHT22;9309;52.126;11.616;2023-07-13T14:41:37;28.50;31.60
18365;DHT22;9309;52.126;11.616;2023-07-13T14:44:07;27.60;32.00
18365;DHT22;9309;52.126;11.616;2023-07-13T14:46:34;27.10;33.30
18365;DHT22;9309;52.126;11.616;2023-07-13T14:49:02;27.10;33.70
18365;DHT22;9309;52.126;11.616;2023-07-13T14:51:30;26.90;33.90
18365;DHT22;9309;52.126;11.616;2023-07-13T14:54:00;26.50;34.80
18365;DHT22;9309;52.126;11.616;2023-07-13T14:56:26;26.60;34.40
18365;DHT22;9309;52.126;11.616;2023-07-13T14:58:53;26.60;34.10
18365;DHT22;9309;52.126;11.616;2023-07-13T15:01:19;26.60;34.60
18365;DHT22;9309;52.126;11.616;2023-07-13T15:03:50;26.90;34.90
18365;DHT22;9309;52.126;11.616;2023-07-13T15:06:17;27.10;34.50
18365;DHT22;9309;52.126;11.616;2023-07-13T15:08:44;27.10;34.30
18365;DHT22;9309;52.126;11.616;2023-07-13T15:11:13;27.30;33.90
18365;DHT22;9309;52.126;11.616;2023-07-13T15:13:41;27.20;33.80
18365;DHT22;9309;52.126;11.616;2023-07-13T15:16:15;27.00;34.20
18365;DHT22;9309;52.126;11.616;2023-07-13T15:18:44;27.30;33.00
18365;DHT22;9309;52.126;11.616;2023-07-13T15:21:21;27.60;32.60
18365;DHT22;9309;52.126;11.616;2023-07-13T15:23:48;27.20;33.20
18365;DHT22;9309;52.126;11.616;2023-07-13T15:26:18;27.10;33.90
18365;DHT22;9309;52.126;11.616;2023-07-13T15:28:46;27.10;33.60
18365;DHT22;9309;52.126;11.616;2023-07-13T15:31:21;26.50;34.70
18365;DHT22;9309;52.126;11.616;2023-07-13T15:33:49;26.30;35.20
18365;DHT22;9309;52.126;11.616;2023-07-13T15:36:17;26.40;35.60
18365;DHT22;9309;52.126;11.616;2023-07-13T15:38:44;26.60;35.40
18365;DHT22;9309;52.126;11.616;2023-07-13T15:41:18;26.40;35.50
18365;DHT22;9309;52.126;11.616;2023-07-13T15:43:49;26.40;36.00